Hartford, Connecticut
Current Conditions -  °F | °C
As of 8:53 AM on Monday 20 Oct 2014 (Local Time) from KHFD Reporting Station
Clear Clear  
Wind Chill: 37°   Ceiling: Unl
Heat Index: 42°   Visibility: 10mi
Dew Point: 31°   Wind: 9mph
Humidity: 65%   Direction: 220°SW
Pressure: 30.1"   Gusts: NA
Location:  41.76°N, 72.67°W
Report Text: KHFD 201253Z 22008KT 200V260 10SM CLR 06/M01 A3010 RMK AO2 SLP193 T00561006 $
Loading
Personal Weather Stations






























Interactive Weather Map
Tropical Storm Tracking
New forecast layout! Learn more

10-Day Weather Forecast

Advertisements
Track Severe Weather on mobile